sensor_id;sensor_type;location;lat;lon;timestamp;pressure;altitude;pressure_sealevel;temperature;humidity
13594;BME280;6449;47.666;9.160;2023-05-22T00:00:52;96609.38;;;17.35;100.00
13594;BME280;6449;47.666;9.160;2023-05-22T00:05:47;96610.56;;;17.33;100.00
13594;BME280;6449;47.666;9.160;2023-05-22T00:10:41;96600.97;;;17.48;100.00
13594;BME280;6449;47.666;9.160;2023-05-22T00:15:34;96612.72;;;17.45;100.00
13594;BME280;6449;47.666;9.160;2023-05-22T00:20:29;96616.63;;;16.92;100.00
13594;BME280;6449;47.666;9.160;2023-05-22T00:25:22;96615.66;;;17.10;100.00
13594;BME280;6449;47.666;9.160;2023-05-22T00:30:15;96617.69;;;17.16;100.00
13594;BME280;6449;47.666;9.160;2023-05-22T00:35:09;96623.81;;;17.33;100.00
13594;BME280;6449;47.666;9.160;2023-05-22T00:40:07;96623.66;;;17.42;100.00
13594;BME280;6449;47.666;9.160;2023-05-22T00:45:00;96634.41;;;17.33;100.00
13594;BME280;6449;47.666;9.160;2023-05-22T00:49:54;96623.63;;;17.01;100.00
13594;BME280;6449;47.666;9.160;2023-05-22T00:54:51;96635.50;;;16.97;100.00
13594;BME280;6449;47.666;9.160;2023-05-22T00:59:47;96636.78;;;16.77;100.00
13594;BME280;6449;47.666;9.160;2023-05-22T01:04:44;96640.63;;;16.91;100.00
13594;BME280;6449;47.666;9.160;2023-05-22T01:09:39;96649.97;;;17.11;100.00
13594;BME280;6449;47.666;9.160;2023-05-22T01:14:42;96642.91;;;16.77;100.00
13594;BME280;6449;47.666;9.160;2023-05-22T01:20:07;96647.72;;;16.82;100.00
13594;BME280;6449;47.666;9.160;2023-05-22T01:25:30;96655.97;;;16.71;100.00
13594;BME280;6449;47.666;9.160;2023-05-22T01:30:55;96652.09;;;16.65;100.00
13594;BME280;6449;47.666;9.160;2023-05-22T01:35:53;96657.13;;;16.76;100.00
13594;BME280;6449;47.666;9.160;2023-05-22T01:40:49;96658.47;;;16.72;100.00
13594;BME280;6449;47.666;9.160;2023-05-22T01:45:43;96657.34;;;16.91;100.00
13594;BME280;6449;47.666;9.160;2023-05-22T01:50:39;96656.56;;;17.07;100.00
13594;BME280;6449;47.666;9.160;2023-05-22T01:55:42;96656.25;;;17.10;100.00
13594;BME280;6449;47.666;9.160;2023-05-22T02:00:40;96655.59;;;17.24;100.00
13594;BME280;6449;47.666;9.160;2023-05-22T02:05:38;96652.47;;;17.21;100.00
13594;BME280;6449;47.666;9.160;2023-05-22T02:10:34;96652.13;;;17.16;100.00
13594;BME280;6449;47.666;9.160;2023-05-22T02:15:29;96656.09;;;17.28;100.00
13594;BME280;6449;47.666;9.160;2023-05-22T02:20:23;96650.31;;;17.33;100.00
13594;BME280;6449;47.666;9.160;2023-05-22T02:25:17;96650.47;;;17.31;100.00
13594;BME280;6449;47.666;9.160;2023-05-22T02:30:12;96652.28;;;17.39;100.00
13594;BME280;6449;47.666;9.160;2023-05-22T02:35:07;96645.16;;;17.23;100.00
13594;BME280;6449;47.666;9.160;2023-05-22T02:40:01;96637.38;;;17.05;100.00
13594;BME280;6449;47.666;9.160;2023-05-22T02:44:58;96636.53;;;17.05;100.00
13594;BME280;6449;47.666;9.160;2023-05-22T02:49:51;96642.31;;;17.08;100.00
13594;BME280;6449;47.666;9.160;2023-05-22T02:54:45;96646.94;;;16.90;100.00
13594;BME280;6449;47.666;9.160;2023-05-22T02:59:38;96650.91;;;16.94;100.00
13594;BME280;6449;47.666;9.160;2023-05-22T03:04:33;96653.72;;;16.92;100.00
13594;BME280;6449;47.666;9.160;2023-05-22T03:09:29;96645.56;;;16.77;100.00
13594;BME280;6449;47.666;9.160;2023-05-22T03:14:23;96647.53;;;16.75;100.00
13594;BME280;6449;47.666;9.160;2023-05-22T03:19:16;96645.06;;;16.74;100.00
13594;BME280;6449;47.666;9.160;2023-05-22T03:24:11;96660.50;;;16.53;100.00
13594;BME280;6449;47.666;9.160;2023-05-22T03:29:04;96660.63;;;16.43;100.00
13594;BME280;6449;47.666;9.160;2023-05-22T03:33:58;96656.69;;;16.47;100.00
13594;BME280;6449;47.666;9.160;2023-05-22T03:38:52;96663.56;;;16.32;100.00
13594;BME280;6449;47.666;9.160;2023-05-22T03:43:46;96654.31;;;16.36;100.00
13594;BME280;6449;47.666;9.160;2023-05-22T03:48:40;96652.63;;;16.27;100.00
13594;BME280;6449;47.666;9.160;2023-05-22T03:53:33;96652.84;;;16.41;100.00
13594;BME280;6449;47.666;9.160;2023-05-22T03:58:26;96657.69;;;16.54;100.00
13594;BME280;6449;47.666;9.160;2023-05-22T04:03:21;96669.84;;;16.31;100.00
13594;BME280;6449;47.666;9.160;2023-05-22T04:08:15;96669.88;;;16.13;100.00
13594;BME280;6449;47.666;9.160;2023-05-22T04:13:08;96669.53;;;16.08;100.00
13594;BME280;6449;47.666;9.160;2023-05-22T04:18:01;96680.69;;;16.19;100.00
13594;BME280;6449;47.666;9.160;2023-05-22T04:22:56;96677.09;;;16.29;100.00
13594;BME280;6449;47.666;9.160;2023-05-22T04:27:50;96693.31;;;16.08;100.00
13594;BME280;6449;47.666;9.160;2023-05-22T04:32:43;96691.72;;;16.15;100.00
13594;BME280;6449;47.666;9.160;2023-05-22T04:37:36;96703.63;;;16.19;100.00
13594;BME280;6449;47.666;9.160;2023-05-22T04:42:33;96700.53;;;16.23;100.00
13594;BME280;6449;47.666;9.160;2023-05-22T04:47:28;96703.13;;;15.89;100.00
13594;BME280;6449;47.666;9.160;2023-05-22T04:52:22;96699.19;;;15.93;100.00
13594;BME280;6449;47.666;9.160;2023-05-22T04:57:16;96701.41;;;16.32;100.00
13594;BME280;6449;47.666;9.160;2023-05-22T05:02:11;96708.53;;;16.66;100.00
13594;BME280;6449;47.666;9.160;2023-05-22T05:07:04;96709.50;;;16.99;100.00
13594;BME280;6449;47.666;9.160;2023-05-22T05:11:58;96711.56;;;17.21;100.00
13594;BME280;6449;47.666;9.160;2023-05-22T05:16:51;96714.25;;;17.46;100.00
13594;BME280;6449;47.666;9.160;2023-05-22T05:21:47;96720.59;;;17.69;100.00
13594;BME280;6449;47.666;9.160;2023-05-22T05:26:41;96716.25;;;17.68;100.00
13594;BME280;6449;47.666;9.160;2023-05-22T05:31:35;96710.47;;;17.89;100.00
13594;BME280;6449;47.666;9.160;2023-05-22T05:36:28;96713.47;;;17.78;100.00
13594;BME280;6449;47.666;9.160;2023-05-22T05:41:24;96711.78;;;17.61;100.00
13594;BME280;6449;47.666;9.160;2023-05-22T05:46:18;96715.41;;;17.68;100.00
13594;BME280;6449;47.666;9.160;2023-05-22T05:51:11;96715.59;;;18.15;100.00
13594;BME280;6449;47.666;9.160;2023-05-22T05:56:06;96718.94;;;18.17;100.00
13594;BME280;6449;47.666;9.160;2023-05-22T06:01:02;96728.41;;;18.12;100.00
13594;BME280;6449;47.666;9.160;2023-05-22T06:05:56;96719.44;;;18.13;100.00
13594;BME280;6449;47.666;9.160;2023-05-22T06:10:50;96728.88;;;18.23;100.00
13594;BME280;6449;47.666;9.160;2023-05-22T06:15:43;96736.84;;;18.07;100.00
13594;BME280;6449;47.666;9.160;2023-05-22T06:20:38;96737.69;;;17.91;100.00
13594;BME280;6449;47.666;9.160;2023-05-22T06:25:32;96743.31;;;18.04;100.00
13594;BME280;6449;47.666;9.160;2023-05-22T06:30:25;96747.94;;;17.94;100.00
13594;BME280;6449;47.666;9.160;2023-05-22T06:35:31;96740.50;;;18.06;100.00
13594;BME280;6449;47.666;9.160;2023-05-22T06:40:26;96753.41;;;18.25;100.00
13594;BME280;6449;47.666;9.160;2023-05-22T06:45:19;96750.91;;;18.32;100.00
13594;BME280;6449;47.666;9.160;2023-05-22T06:50:12;96747.75;;;18.45;100.00
13594;BME280;6449;47.666;9.160;2023-05-22T06:55:07;96750.69;;;18.66;100.00
13594;BME280;6449;47.666;9.160;2023-05-22T07:00:02;96749.34;;;18.62;100.00
13594;BME280;6449;47.666;9.160;2023-05-22T07:04:58;96745.84;;;18.78;100.00
13594;BME280;6449;47.666;9.160;2023-05-22T07:09:52;96749.94;;;18.97;100.00
13594;BME280;6449;47.666;9.160;2023-05-22T07:14:45;96749.88;;;19.13;100.00
13594;BME280;6449;47.666;9.160;2023-05-22T07:19:40;96746.91;;;19.39;100.00
13594;BME280;6449;47.666;9.160;2023-05-22T07:24:33;96745.78;;;19.65;100.00
13594;BME280;6449;47.666;9.160;2023-05-22T07:29:27;96758.91;;;19.89;100.00
13594;BME280;6449;47.666;9.160;2023-05-22T07:34:20;96741.75;;;20.14;100.00
13594;BME280;6449;47.666;9.160;2023-05-22T07:39:15;96754.22;;;20.29;100.00
13594;BME280;6449;47.666;9.160;2023-05-22T07:44:09;96755.25;;;20.51;100.00
13594;BME280;6449;47.666;9.160;2023-05-22T07:49:02;96753.78;;;20.63;100.00
13594;BME280;6449;47.666;9.160;2023-05-22T07:53:55;96750.47;;;20.76;100.00
13594;BME280;6449;47.666;9.160;2023-05-22T07:58:51;96747.81;;;21.05;100.00
13594;BME280;6449;47.666;9.160;2023-05-22T08:03:44;96748.06;;;21.10;100.00
13594;BME280;6449;47.666;9.160;2023-05-22T08:08:38;96749.50;;;21.42;100.00
13594;BME280;6449;47.666;9.160;2023-05-22T08:13:31;96745.66;;;21.66;100.00
13594;BME280;6449;47.666;9.160;2023-05-22T08:18:26;96736.50;;;21.76;100.00
13594;BME280;6449;47.666;9.160;2023-05-22T08:23:20;96736.75;;;22.02;100.00
13594;BME280;6449;47.666;9.160;2023-05-22T08:28:14;96735.22;;;22.36;100.00
13594;BME280;6449;47.666;9.160;2023-05-22T08:33:07;96734.97;;;22.31;100.00
13594;BME280;6449;47.666;9.160;2023-05-22T08:38:02;96735.16;;;22.57;100.00
13594;BME280;6449;47.666;9.160;2023-05-22T08:42:55;96734.38;;;22.91;100.00
13594;BME280;6449;47.666;9.160;2023-05-22T08:47:54;96716.97;;;23.09;100.00
13594;BME280;6449;47.666;9.160;2023-05-22T08:52:54;96724.63;;;23.18;100.00
13594;BME280;6449;47.666;9.160;2023-05-22T08:57:51;96730.34;;;23.09;100.00
13594;BME280;6449;47.666;9.160;2023-05-22T09:02:46;96718.81;;;23.08;100.00
13594;BME280;6449;47.666;9.160;2023-05-22T09:07:40;96715.94;;;23.16;100.00
13594;BME280;6449;47.666;9.160;2023-05-22T09:12:35;96708.66;;;23.45;100.00
13594;BME280;6449;47.666;9.160;2023-05-22T09:17:30;96712.16;;;23.59;100.00
13594;BME280;6449;47.666;9.160;2023-05-22T09:22:34;96708.50;;;23.60;100.00
13594;BME280;6449;47.666;9.160;2023-05-22T09:27:29;96708.09;;;23.69;100.00
13594;BME280;6449;47.666;9.160;2023-05-22T09:32:23;96711.41;;;23.91;100.00
13594;BME280;6449;47.666;9.160;2023-05-22T09:37:18;96707.28;;;23.75;100.00
13594;BME280;6449;47.666;9.160;2023-05-22T09:42:14;96708.97;;;23.90;100.00
13594;BME280;6449;47.666;9.160;2023-05-22T09:47:08;96707.31;;;23.82;100.00
13594;BME280;6449;47.666;9.160;2023-05-22T09:52:06;96700.94;;;24.10;100.00
13594;BME280;6449;47.666;9.160;2023-05-22T09:57:05;96701.34;;;24.07;100.00
13594;BME280;6449;47.666;9.160;2023-05-22T10:02:01;96703.19;;;24.26;100.00
13594;BME280;6449;47.666;9.160;2023-05-22T10:07:00;96705.06;;;24.25;100.00
13594;BME280;6449;47.666;9.160;2023-05-22T10:11:57;96699.91;;;24.24;100.00
13594;BME280;6449;47.666;9.160;2023-05-22T10:16:58;96709.78;;;24.50;100.00
13594;BME280;6449;47.666;9.160;2023-05-22T10:21:56;96692.06;;;24.49;100.00
13594;BME280;6449;47.666;9.160;2023-05-22T10:26:53;96691.22;;;24.62;100.00
13594;BME280;6449;47.666;9.160;2023-05-22T10:31:55;96680.25;;;24.70;100.00
13594;BME280;6449;47.666;9.160;2023-05-22T10:37:09;96683.13;;;24.75;100.00
13594;BME280;6449;47.666;9.160;2023-05-22T10:42:12;96668.94;;;24.68;100.00
13594;BME280;6449;47.666;9.160;2023-05-22T10:47:07;96668.19;;;25.05;100.00
13594;BME280;6449;47.666;9.160;2023-05-22T10:52:07;96660.75;;;25.07;100.00
13594;BME280;6449;47.666;9.160;2023-05-22T10:57:09;96652.28;;;25.11;100.00
13594;BME280;6449;47.666;9.160;2023-05-22T11:02:17;96648.59;;;25.43;100.00
13594;BME280;6449;47.666;9.160;2023-05-22T11:07:13;96638.91;;;25.42;98.44
13594;BME280;6449;47.666;9.160;2023-05-22T11:12:22;96638.03;;;25.48;97.88
13594;BME280;6449;47.666;9.160;2023-05-22T11:17:19;96636.22;;;25.74;99.67
13594;BME280;6449;47.666;9.160;2023-05-22T11:22:16;96622.03;;;26.17;94.95
13594;BME280;6449;47.666;9.160;2023-05-22T11:27:10;96614.91;;;26.04;91.72
13594;BME280;6449;47.666;9.160;2023-05-22T11:32:04;96622.03;;;26.17;99.40
13594;BME280;6449;47.666;9.160;2023-05-22T11:37:00;96598.44;;;26.19;90.67
13594;BME280;6449;47.666;9.160;2023-05-22T11:41:55;96604.16;;;26.47;91.34
13594;BME280;6449;47.666;9.160;2023-05-22T11:46:48;96606.69;;;26.60;96.72
13594;BME280;6449;47.666;9.160;2023-05-22T11:51:42;96591.16;;;26.44;89.10
13594;BME280;6449;47.666;9.160;2023-05-22T11:56:36;96575.94;;;26.13;71.81
13594;BME280;6449;47.666;9.160;2023-05-22T12:01:31;96601.81;;;26.32;83.40
13594;BME280;6449;47.666;9.160;2023-05-22T12:06:25;96600.53;;;26.35;93.37
13594;BME280;6449;47.666;9.160;2023-05-22T12:11:18;96585.69;;;26.32;88.26
13594;BME280;6449;47.666;9.160;2023-05-22T12:16:19;96580.22;;;26.39;84.63
13594;BME280;6449;47.666;9.160;2023-05-22T12:21:18;96581.88;;;26.40;87.08
13594;BME280;6449;47.666;9.160;2023-05-22T12:26:11;96580.81;;;26.41;81.33
13594;BME280;6449;47.666;9.160;2023-05-22T12:31:04;96583.59;;;26.16;83.14
13594;BME280;6449;47.666;9.160;2023-05-22T12:35:58;96581.00;;;26.03;83.76
13594;BME280;6449;47.666;9.160;2023-05-22T12:40:54;96590.19;;;25.95;91.41
13594;BME280;6449;47.666;9.160;2023-05-22T12:45:48;96579.75;;;26.05;89.75
13594;BME280;6449;47.666;9.160;2023-05-22T12:50:41;96574.00;;;26.02;87.33
13594;BME280;6449;47.666;9.160;2023-05-22T12:55:35;96570.25;;;26.03;89.09
13594;BME280;6449;47.666;9.160;2023-05-22T13:00:30;96569.69;;;26.01;86.75
13594;BME280;6449;47.666;9.160;2023-05-22T13:05:23;96564.81;;;26.09;80.47
13594;BME280;6449;47.666;9.160;2023-05-22T13:10:17;96558.44;;;26.10;83.63
13594;BME280;6449;47.666;9.160;2023-05-22T13:15:11;96557.97;;;26.13;87.16
13594;BME280;6449;47.666;9.160;2023-05-22T13:20:09;96549.91;;;26.13;79.89
13594;BME280;6449;47.666;9.160;2023-05-22T13:25:04;96544.38;;;26.08;78.07
13594;BME280;6449;47.666;9.160;2023-05-22T13:29:57;96530.84;;;26.15;72.28
13594;BME280;6449;47.666;9.160;2023-05-22T13:34:51;96533.31;;;25.98;74.80
13594;BME280;6449;47.666;9.160;2023-05-22T13:39:46;96537.28;;;25.96;72.63
13594;BME280;6449;47.666;9.160;2023-05-22T13:44:39;96536.47;;;25.95;74.79
13594;BME280;6449;47.666;9.160;2023-05-22T13:49:32;96526.75;;;26.12;73.08
13594;BME280;6449;47.666;9.160;2023-05-22T13:54:26;96516.91;;;26.06;69.48
13594;BME280;6449;47.666;9.160;2023-05-22T13:59:21;96516.56;;;26.21;72.39
13594;BME280;6449;47.666;9.160;2023-05-22T14:04:14;96515.84;;;26.26;71.62
13594;BME280;6449;47.666;9.160;2023-05-22T14:09:08;96509.00;;;26.11;70.38
13594;BME280;6449;47.666;9.160;2023-05-22T14:14:01;96508.25;;;26.23;71.09
13594;BME280;6449;47.666;9.160;2023-05-22T14:18:58;96510.47;;;26.26;75.03
13594;BME280;6449;47.666;9.160;2023-05-22T14:23:51;96506.63;;;26.22;72.30
13594;BME280;6449;47.666;9.160;2023-05-22T14:28:45;96506.81;;;26.20;73.21
13594;BME280;6449;47.666;9.160;2023-05-22T14:33:38;96497.34;;;26.18;72.61
13594;BME280;6449;47.666;9.160;2023-05-22T14:38:33;96498.25;;;26.11;75.49
13594;BME280;6449;47.666;9.160;2023-05-22T14:43:27;96506.25;;;26.00;78.76
13594;BME280;6449;47.666;9.160;2023-05-22T14:48:20;96509.09;;;26.05;75.06
13594;BME280;6449;47.666;9.160;2023-05-22T14:53:17;96514.31;;;26.00;79.38
13594;BME280;6449;47.666;9.160;2023-05-22T14:58:12;96501.91;;;25.99;70.48
13594;BME280;6449;47.666;9.160;2023-05-22T15:03:05;96496.38;;;25.94;71.19
13594;BME280;6449;47.666;9.160;2023-05-22T15:07:59;96480.94;;;25.89;66.73
13594;BME280;6449;47.666;9.160;2023-05-22T15:12:52;96490.28;;;26.05;75.09
13594;BME280;6449;47.666;9.160;2023-05-22T15:17:47;96494.38;;;25.89;77.62
13594;BME280;6449;47.666;9.160;2023-05-22T15:22:40;96494.41;;;25.82;77.81
13594;BME280;6449;47.666;9.160;2023-05-22T15:27:34;96502.78;;;25.74;79.31
13594;BME280;6449;47.666;9.160;2023-05-22T15:32:28;96493.06;;;25.73;80.93
13594;BME280;6449;47.666;9.160;2023-05-22T15:37:23;96496.75;;;25.72;83.56
13594;BME280;6449;47.666;9.160;2023-05-22T15:42:17;96489.56;;;25.73;82.01
13594;BME280;6449;47.666;9.160;2023-05-22T15:47:10;96480.41;;;25.99;76.72
13594;BME280;6449;47.666;9.160;2023-05-22T15:52:04;96491.22;;;25.92;79.69
13594;BME280;6449;47.666;9.160;2023-05-22T15:56:59;96493.75;;;25.87;73.97
13594;BME280;6449;47.666;9.160;2023-05-22T16:01:52;96507.09;;;25.94;76.18
13594;BME280;6449;47.666;9.160;2023-05-22T16:06:46;96506.53;;;25.92;75.55
13594;BME280;6449;47.666;9.160;2023-05-22T16:11:39;96518.44;;;25.77;74.18
13594;BME280;6449;47.666;9.160;2023-05-22T16:16:34;96495.53;;;25.75;70.06
13594;BME280;6449;47.666;9.160;2023-05-22T16:21:28;96501.16;;;25.67;69.60
13594;BME280;6449;47.666;9.160;2023-05-22T16:26:21;96501.69;;;25.57;72.16
13594;BME280;6449;47.666;9.160;2023-05-22T16:31:15;96503.91;;;25.35;70.21
13594;BME280;6449;47.666;9.160;2023-05-22T16:36:12;96495.66;;;25.37;69.72
13594;BME280;6449;47.666;9.160;2023-05-22T16:41:05;96499.81;;;25.32;73.68
13594;BME280;6449;47.666;9.160;2023-05-22T16:45:58;96504.09;;;25.15;72.89
13594;BME280;6449;47.666;9.160;2023-05-22T16:50:52;96515.59;;;25.22;74.70
13594;BME280;6449;47.666;9.160;2023-05-22T16:55:47;96519.78;;;25.12;73.66
13594;BME280;6449;47.666;9.160;2023-05-22T17:00:40;96526.44;;;25.09;78.50
13594;BME280;6449;47.666;9.160;2023-05-22T17:05:34;96528.56;;;24.87;73.28
13594;BME280;6449;47.666;9.160;2023-05-22T17:10:27;96543.81;;;24.93;77.37
13594;BME280;6449;47.666;9.160;2023-05-22T17:15:22;96541.28;;;24.67;74.06
13594;BME280;6449;47.666;9.160;2023-05-22T17:20:16;96550.34;;;24.66;74.81
13594;BME280;6449;47.666;9.160;2023-05-22T17:25:09;96539.63;;;24.66;74.32
13594;BME280;6449;47.666;9.160;2023-05-22T17:30:04;96544.88;;;24.47;72.16
13594;BME280;6449;47.666;9.160;2023-05-22T17:35:00;96553.53;;;24.43;78.63
13594;BME280;6449;47.666;9.160;2023-05-22T17:39:54;96564.28;;;24.36;80.89
13594;BME280;6449;47.666;9.160;2023-05-22T17:44:47;96559.16;;;24.15;81.98
13594;BME280;6449;47.666;9.160;2023-05-22T17:49:40;96569.28;;;24.06;87.04
13594;BME280;6449;47.666;9.160;2023-05-22T17:54:35;96581.06;;;23.92;91.43
13594;BME280;6449;47.666;9.160;2023-05-22T17:59:29;96581.88;;;23.79;92.97
13594;BME280;6449;47.666;9.160;2023-05-22T18:04:23;96579.00;;;23.67;91.15
13594;BME280;6449;47.666;9.160;2023-05-22T18:09:16;96582.47;;;23.61;94.08
13594;BME280;6449;47.666;9.160;2023-05-22T18:14:11;96588.84;;;23.53;100.00
13594;BME280;6449;47.666;9.160;2023-05-22T18:19:04;96587.59;;;23.36;98.79
13594;BME280;6449;47.666;9.160;2023-05-22T18:23:58;96583.47;;;23.27;97.52
13594;BME280;6449;47.666;9.160;2023-05-22T18:28:54;96589.63;;;23.21;100.00
13594;BME280;6449;47.666;9.160;2023-05-22T18:34:06;96600.94;;;23.16;100.00
13594;BME280;6449;47.666;9.160;2023-05-22T18:38:59;96604.59;;;22.95;94.63
13594;BME280;6449;47.666;9.160;2023-05-22T18:43:53;96608.47;;;22.86;94.95
13594;BME280;6449;47.666;9.160;2023-05-22T18:48:46;96623.25;;;22.82;100.00
13594;BME280;6449;47.666;9.160;2023-05-22T18:53:42;96623.81;;;22.71;100.00
13594;BME280;6449;47.666;9.160;2023-05-22T18:58:35;96628.25;;;22.51;100.00
13594;BME280;6449;47.666;9.160;2023-05-22T19:03:32;96626.75;;;22.41;100.00
13594;BME280;6449;47.666;9.160;2023-05-22T19:08:31;96636.19;;;22.37;100.00
13594;BME280;6449;47.666;9.160;2023-05-22T19:13:27;96647.63;;;22.03;100.00
13594;BME280;6449;47.666;9.160;2023-05-22T19:18:20;96662.44;;;21.56;100.00
13594;BME280;6449;47.666;9.160;2023-05-22T19:23:14;96661.28;;;21.65;100.00
13594;BME280;6449;47.666;9.160;2023-05-22T19:28:07;96658.31;;;21.54;100.00
13594;BME280;6449;47.666;9.160;2023-05-22T19:33:02;96665.75;;;21.58;100.00
13594;BME280;6449;47.666;9.160;2023-05-22T19:37:59;96671.91;;;21.37;100.00
13594;BME280;6449;47.666;9.160;2023-05-22T19:42:53;96672.66;;;21.31;100.00
13594;BME280;6449;47.666;9.160;2023-05-22T19:47:46;96681.22;;;21.12;100.00
13594;BME280;6449;47.666;9.160;2023-05-22T19:52:41;96691.25;;;21.10;100.00
13594;BME280;6449;47.666;9.160;2023-05-22T19:57:34;96712.81;;;20.93;100.00
13594;BME280;6449;47.666;9.160;2023-05-22T20:02:28;96720.59;;;21.10;100.00
13594;BME280;6449;47.666;9.160;2023-05-22T20:07:21;96722.59;;;21.08;100.00
13594;BME280;6449;47.666;9.160;2023-05-22T20:12:16;96733.44;;;21.21;100.00
13594;BME280;6449;47.666;9.160;2023-05-22T20:17:09;96733.44;;;21.06;100.00
13594;BME280;6449;47.666;9.160;2023-05-22T20:22:03;96728.78;;;20.93;100.00
13594;BME280;6449;47.666;9.160;2023-05-22T20:26:57;96739.06;;;20.52;100.00
13594;BME280;6449;47.666;9.160;2023-05-22T20:31:51;96737.88;;;20.17;100.00
13594;BME280;6449;47.666;9.160;2023-05-22T20:36:48;96734.22;;;20.33;100.00
13594;BME280;6449;47.666;9.160;2023-05-22T20:41:41;96737.59;;;20.50;100.00
13594;BME280;6449;47.666;9.160;2023-05-22T20:46:36;96736.56;;;20.13;100.00
13594;BME280;6449;47.666;9.160;2023-05-22T20:51:31;96729.72;;;20.33;100.00
13594;BME280;6449;47.666;9.160;2023-05-22T20:56:24;96723.50;;;20.26;100.00
13594;BME280;6449;47.666;9.160;2023-05-22T21:01:18;96720.84;;;19.88;100.00
13594;BME280;6449;47.666;9.160;2023-05-22T21:06:12;96718.09;;;19.97;100.00
13594;BME280;6449;47.666;9.160;2023-05-22T21:11:06;96724.84;;;19.84;100.00
13594;BME280;6449;47.666;9.160;2023-05-22T21:16:00;96718.91;;;19.97;100.00
13594;BME280;6449;47.666;9.160;2023-05-22T21:20:53;96729.16;;;19.85;100.00
13594;BME280;6449;47.666;9.160;2023-05-22T21:25:47;96741.75;;;19.69;100.00
13594;BME280;6449;47.666;9.160;2023-05-22T21:30:41;96761.72;;;19.65;100.00
13594;BME280;6449;47.666;9.160;2023-05-22T21:36:05;96774.44;;;19.15;100.00
13594;BME280;6449;47.666;9.160;2023-05-22T21:40:58;96772.81;;;19.45;100.00
13594;BME280;6449;47.666;9.160;2023-05-22T21:45:53;96782.84;;;19.58;100.00
13594;BME280;6449;47.666;9.160;2023-05-22T21:50:46;96789.81;;;19.67;100.00
13594;BME280;6449;47.666;9.160;2023-05-22T21:55:41;96783.38;;;19.84;100.00
13594;BME280;6449;47.666;9.160;2023-05-22T22:00:34;96785.56;;;19.81;100.00
13594;BME280;6449;47.666;9.160;2023-05-22T22:05:32;96801.72;;;19.79;100.00
13594;BME280;6449;47.666;9.160;2023-05-22T22:10:25;96804.66;;;19.84;100.00
13594;BME280;6449;47.666;9.160;2023-05-22T22:15:18;96803.03;;;19.83;100.00
13594;BME280;6449;47.666;9.160;2023-05-22T22:20:12;96801.31;;;19.20;100.00
13594;BME280;6449;47.666;9.160;2023-05-22T22:25:08;96804.63;;;19.22;100.00
13594;BME280;6449;47.666;9.160;2023-05-22T22:30:02;96800.63;;;19.26;100.00
13594;BME280;6449;47.666;9.160;2023-05-22T22:34:55;96806.63;;;18.81;100.00
13594;BME280;6449;47.666;9.160;2023-05-22T22:39:49;96812.59;;;18.83;100.00
13594;BME280;6449;47.666;9.160;2023-05-22T22:44:43;96808.72;;;19.02;100.00
13594;BME280;6449;47.666;9.160;2023-05-22T22:49:37;96808.50;;;19.11;100.00
13594;BME280;6449;47.666;9.160;2023-05-22T22:54:30;96811.91;;;18.89;100.00
13594;BME280;6449;47.666;9.160;2023-05-22T22:59:24;96808.13;;;18.51;100.00
13594;BME280;6449;47.666;9.160;2023-05-22T23:04:18;96809.59;;;18.53;100.00
13594;BME280;6449;47.666;9.160;2023-05-22T23:09:12;96813.44;;;18.75;100.00
13594;BME280;6449;47.666;9.160;2023-05-22T23:14:07;96818.72;;;18.92;100.00
13594;BME280;6449;47.666;9.160;2023-05-22T23:19:01;96825.25;;;18.48;100.00
13594;BME280;6449;47.666;9.160;2023-05-22T23:23:56;96821.72;;;18.56;100.00
13594;BME280;6449;47.666;9.160;2023-05-22T23:28:49;96822.91;;;18.45;100.00
13594;BME280;6449;47.666;9.160;2023-05-22T23:33:43;96825.91;;;18.34;100.00
13594;BME280;6449;47.666;9.160;2023-05-22T23:38:36;96833.38;;;18.39;100.00
13594;BME280;6449;47.666;9.160;2023-05-22T23:43:31;96833.38;;;18.22;100.00
13594;BME280;6449;47.666;9.160;2023-05-22T23:48:24;96826.72;;;18.02;100.00
13594;BME280;6449;47.666;9.160;2023-05-22T23:53:18;96831.69;;;18.21;100.00
13594;BME280;6449;47.666;9.160;2023-05-22T23:58:11;96826.91;;;18.17;100.00
